Dades de l'estació automàtica Riudecanyes

?
?
Resum diari 22:00 TU
Dades diàries de l'estació meteorològica
Temperatura mitjana 21.9 °C
Temperatura màxima 28.7 °C 11:49 TU
Temperatura mínima 15.5 °C 5:46 TU
Humitat relativa mitjana 65%
Precipitació acumulada 0.0 mm
Ratxa màxima del vent (10 m) 27.0 km/h - 179º 14:18 TU
Irradiació solar global 16.9 MJ/m2

El tram horari està expressat en Temps Universal (TU). Cal sumar una hora en horari d'hivern i dues en horari d'estiu per passar a l'hora oficial.

Riudecanyes

Metadades estació meteorol´gica
Municipi Riudecanyes
Comarca Baix Camp
Altitud 170 m
Data alta 06.02.2019
Estat actual Operativa
Dades de període
Període
TU
TM
°C
TX
°C
TN
°C
HRM
%
PPT
mm
VVM (10 m)
km/h
DVM (10 m)
graus
VVX (10 m)
km/h
RS
W/m2
00:00 - 00:30 18.3 18.4 18.2 82 0.0 7.6 329 12.2 0
00:30 - 01:00 18.3 18.5 18.1 80 0.0 7.6 325 12.2 0
01:00 - 01:30 17.7 18.1 17.4 82 0.0 9.0 333 15.1 0
01:30 - 02:00 17.5 17.8 16.7 81 0.0 8.6 334 15.8 0
02:00 - 02:30 17.2 17.3 16.9 81 0.0 9.7 329 17.6 0
02:30 - 03:00 17.0 17.3 16.5 80 0.0 10.8 330 17.3 0
03:00 - 03:30 16.8 17.3 16.5 80 0.0 10.4 337 15.1 0
03:30 - 04:00 17.3 17.5 16.9 79 0.0 7.9 325 15.1 0
04:00 - 04:30 16.6 17.0 16.3 84 0.0 7.9 325 13.3 0
04:30 - 05:00 16.4 16.7 16.2 83 0.0 9.7 332 15.1 0
05:00 - 05:30 16.3 16.8 16.0 83 0.0 10.8 336 14.4 0
05:30 - 06:00 15.9 16.5 15.5 84 0.0 6.1 319 12.2 4
06:00 - 06:30 16.5 17.3 16.0 82 0.0 5.0 317 10.8 34
06:30 - 07:00 17.4 18.6 16.9 81 0.0 1.8 27 5.4 124
07:00 - 07:30 21.0 22.4 18.9 65 0.0 2.9 227 8.3 223
07:30 - 08:00 22.8 23.4 22.4 51 0.0 6.1 276 14.0 319
08:00 - 08:30 23.9 24.4 23.5 50 0.0 5.8 227 11.9 394
08:30 - 09:00 24.6 25.2 24.2 44 0.0 7.6 241 15.1 499
09:00 - 09:30 25.4 25.8 25.0 42 0.0 8.6 230 15.5 527
09:30 - 10:00 25.8 26.1 25.3 39 0.0 10.1 291 20.9 559
10:00 - 10:30 25.9 26.2 25.4 40 0.0 9.0 269 21.6 440
10:30 - 11:00 26.6 27.0 25.9 37 0.0 11.9 255 23.8 731
11:00 - 11:30 27.7 28.3 27.4 34 0.0 11.2 264 23.8 899
11:30 - 12:00 28.0 28.7 27.7 37 0.0 12.2 243 25.2 894
12:00 - 12:30 27.8 28.7 27.0 46 0.0 9.7 168 20.5 812
12:30 - 13:00 27.4 28.2 26.8 45 0.0 9.7 185 19.4 443
13:00 - 13:30 27.0 27.6 26.3 49 0.0 11.5 182 19.1 728
13:30 - 14:00 27.5 27.9 26.8 50 0.0 16.9 179 25.2 734
14:00 - 14:30 26.2 27.9 24.8 54 0.0 16.9 185 27.0 344
14:30 - 15:00 24.5 24.8 24.2 65 0.0 13.3 187 25.2 136
15:00 - 15:30 23.7 24.2 23.5 68 0.0 10.8 195 22.7 50
15:30 - 16:00 24.0 24.6 23.3 70 0.0 5.4 273 13.0 153
16:00 - 16:30 25.4 26.0 24.9 56 0.0 4.3 298 10.8 208
16:30 - 17:00 25.4 25.7 25.2 54 0.0 3.2 338 8.3 124
17:00 - 17:30 24.7 25.5 23.8 59 0.0 2.5 320 6.5 39
17:30 - 18:00 22.7 23.7 22.0 67 0.0 2.5 339 10.4 2
18:00 - 18:30 21.6 21.9 21.1 74 0.0 6.8 334 13.0 0
18:30 - 19:00 21.1 21.3 20.7 72 0.0 10.1 327 16.2 0
19:00 - 19:30 20.4 20.7 20.3 73 0.0 8.3 335 14.4 0
19:30 - 20:00 20.4 20.7 20.2 73 0.0 8.6 334 14.8 0
20:00 - 20:30 20.1 20.4 19.7 74 0.0 7.2 336 14.8 0
20:30 - 21:00 19.9 20.7 19.4 76 0.0 4.7 336 9.4 0
21:00 - 21:30 20.7 20.8 20.4 72 0.0 4.7 349 8.6 0
21:30 - 22:00 21.2 21.7 20.4 68 0.0 5.8 350 9.0 0
22:00 - 22:30 21.8 22.4 21.5 63 0.0 5.0 353 10.8 0
22:30 - 23:00 21.8 22.1 21.6 63 0.0 4.3 329 7.6 0

Les dades en taronja només han passat un control de qualitat automàtic. Resta pendent la seva validació definitiva.